Time;durP1;ratioP1;P1;durP2;ratioP2;P2;SDS_P1;SDS_P2;PMS_P1;PMS_P2;Temp;Humidity;BMP_temperature;BMP_pressure;BME280_temperature;BME280_humidity;BME280_pressure;Samples;Min_cycle;Max_cycle;Signal;HPM_P1;HPM_P2
2022/04/05 00:01:19;;;;;;;;;;;;;;;24.70;33.79;93970.31;4961935;28;8875;-87
2022/04/05 00:03:47;;;;;;;;;;;;;;;24.71;34.17;93960.06;4952102;28;8914;-87
2022/04/05 00:06:13;;;;;;;;;;;;;;;24.73;33.70;93957.53;4947604;28;8699;-87
2022/04/05 00:08:39;;;;;;;;;;;;;;;24.77;34.21;93976.53;4952957;28;7588;-86
2022/04/05 00:11:05;;;;;;;;;;;;;;;24.75;34.13;93959.81;4952610;28;7513;-87
2022/04/05 00:13:30;;;;;;;;;;;;;;;24.66;33.71;93947.84;4945503;28;9050;-87
2022/04/05 00:15:57;;;;;;;;;;;;;;;24.68;33.50;93959.06;4953154;28;7394;-87
2022/04/05 00:18:27;;;;;;;;;;;;;;;24.73;34.07;93956.81;4939595;28;9103;-87
2022/04/05 00:20:53;;;;;;;;;;;;;;;24.69;33.45;93957.06;4955933;28;8989;-87
2022/04/05 00:23:19;;;;;;;;;;;;;;;24.73;33.80;93959.56;4955714;28;8804;-87
2022/04/05 00:25:45;;;;;;;;;;;;;;;24.66;34.06;93947.84;4943189;28;9014;-87
2022/04/05 00:28:13;;;;;;;;;;;;;;;24.73;33.71;93956.81;4950109;28;9135;-87
2022/04/05 00:30:41;;;;;;;;;;;;;;;24.73;34.19;93951.31;4949587;28;8753;-86
2022/04/05 00:33:08;;;;;;;;;;;;;;;24.66;34.04;93947.84;4946096;28;9022;-87
2022/04/05 00:35:34;;;;;;;;;;;;;;;24.70;34.03;93953.81;4928940;29;9088;-87
2022/04/05 00:38:03;;;;;;;;;;;;;;;24.70;34.07;93951.06;4948409;29;8713;-87
2022/04/05 00:40:30;;;;;;;;;;;;;;;24.64;34.27;93939.38;4941593;29;7286;-88
2022/04/05 00:42:58;;;;;;;;;;;;;;;24.67;34.16;93938.34;4952385;28;9495;-87
2022/04/05 00:45:27;;;;;;;;;;;;;;;24.68;34.12;93944.59;4937073;29;8715;-87
2022/04/05 00:47:54;;;;;;;;;;;;;;;24.64;33.48;93944.88;4936478;28;8581;-87
2022/04/05 00:50:22;;;;;;;;;;;;;;;24.60;33.90;93938.91;4952041;28;9010;-87
2022/04/05 00:52:50;;;;;;;;;;;;;;;24.68;34.21;93945.31;4946374;29;8725;-87
2022/04/05 00:55:22;;;;;;;;;;;;;;;24.66;33.49;93942.34;4939011;28;8667;-87
2022/04/05 00:57:57;;;;;;;;;;;;;;;24.66;34.27;93945.09;4952109;28;9104;-87
2022/04/05 01:00:26;;;;;;;;;;;;;;;24.67;34.09;93943.09;4930736;29;8759;-87
2022/04/05 01:03:02;;;;;;;;;;;;;;;24.67;33.93;93943.09;4932531;29;9099;-87
2022/04/05 01:05:28;;;;;;;;;;;;;;;24.59;33.54;93934.69;4956342;28;9035;-87
2022/04/05 01:07:59;;;;;;;;;;;;;;;24.59;34.09;93936.69;4956327;28;8769;-87
2022/04/05 01:10:28;;;;;;;;;;;;;;;24.66;33.96;93947.13;4938612;28;8771;-87
2022/04/05 01:12:56;;;;;;;;;;;;;;;24.66;33.70;93941.63;4957908;28;9148;-87
2022/04/05 01:15:32;;;;;;;;;;;;;;;24.65;33.80;93940.13;4946727;28;8614;-87
2022/04/05 01:18:00;;;;;;;;;;;;;;;24.61;33.40;93932.16;4955487;28;8809;-87
2022/04/05 01:20:26;;;;;;;;;;;;;;;24.61;34.23;93928.66;4943147;28;9140;-87
2022/04/05 01:22:57;;;;;;;;;;;;;;;24.64;33.97;93935.91;4947294;28;8735;-87
2022/04/05 01:25:23;;;;;;;;;;;;;;;24.59;33.54;93929.19;4939809;28;7697;-87
2022/04/05 01:27:53;;;;;;;;;;;;;;;24.63;33.60;93935.16;4939955;28;9029;-87
2022/04/05 01:30:19;;;;;;;;;;;;;;;24.61;33.72;93931.41;4938033;28;7381;-87
2022/04/05 01:32:46;;;;;;;;;;;;;;;24.59;33.70;93926.44;4943314;28;7325;-87
2022/04/05 01:35:14;;;;;;;;;;;;;;;24.56;33.83;93924.72;4945352;28;9723;-87
2022/04/05 01:37:42;;;;;;;;;;;;;;;24.62;33.72;93944.63;4944762;28;8743;-86
2022/04/05 01:40:10;;;;;;;;;;;;;;;24.63;33.51;93934.38;4952849;28;8816;-87
2022/04/05 01:42:37;;;;;;;;;;;;;;;24.56;34.00;93938.44;4956075;28;9095;-87
2022/04/05 01:45:08;;;;;;;;;;;;;;;24.63;33.75;93937.13;4945932;28;8957;-87
2022/04/05 01:47:38;;;;;;;;;;;;;;;24.64;34.00;93930.41;4956210;28;8875;-87
2022/04/05 01:50:05;;;;;;;;;;;;;;;24.58;33.78;93924.94;4937687;28;9225;-87
2022/04/05 01:52:31;;;;;;;;;;;;;;;24.62;33.87;93930.16;4949309;28;9020;-87
2022/04/05 01:55:25;;;;;;;;;;;;;;;24.63;34.00;93929.66;4945984;28;9067;-87
2022/04/05 01:58:01;;;;;;;;;;;;;;;24.63;33.67;93921.41;4928711;29;9007;-87
2022/04/05 02:00:36;;;;;;;;;;;;;;;24.62;33.69;93928.13;4917911;29;9287;-87
2022/04/05 02:03:04;;;;;;;;;;;;;;;24.61;33.74;93934.91;4932273;29;6880;-87
2022/04/05 02:05:33;;;;;;;;;;;;;;;24.61;33.75;93925.91;4933284;29;8682;-87
2022/04/05 02:08:12;;;;;;;;;;;;;;;24.62;33.49;93927.41;4924313;29;7255;-87
2022/04/05 02:10:40;;;;;;;;;;;;;;;24.60;33.58;93916.91;4931116;29;8789;-87
2022/04/05 02:13:11;;;;;;;;;;;;;;;24.60;33.52;93922.41;4909389;29;8652;-87
2022/04/05 02:15:39;;;;;;;;;;;;;;;24.55;33.32;93916.97;4931010;28;8736;-87
2022/04/05 02:18:05;;;;;;;;;;;;;;;24.61;33.68;93934.91;4925098;28;8821;-87
2022/04/05 02:20:34;;;;;;;;;;;;;;;24.62;33.39;93936.38;4920486;29;9142;-87
2022/04/05 02:23:05;;;;;;;;;;;;;;;24.62;32.89;93936.38;4903663;29;7391;-87
2022/04/05 02:25:33;;;;;;;;;;;;;;;24.58;33.28;93921.44;4928929;29;9037;-87
2022/04/05 02:28:02;;;;;;;;;;;;;;;24.60;33.17;93927.91;4931432;29;8756;-87
2022/04/05 02:30:28;;;;;;;;;;;;;;;24.60;33.57;93922.41;4933604;29;9236;-87
2022/04/05 02:32:54;;;;;;;;;;;;;;;24.59;33.58;93920.94;4919430;29;9409;-87
2022/04/05 02:35:23;;;;;;;;;;;;;;;24.56;33.59;93916.47;4949543;28;9003;-87
2022/04/05 02:37:50;;;;;;;;;;;;;;;24.59;33.29;93909.94;4953379;28;8755;-87
2022/04/05 02:40:17;;;;;;;;;;;;;;;24.54;33.55;93907.97;4943643;29;8718;-87
2022/04/05 02:42:49;;;;;;;;;;;;;;;24.58;33.36;93911.19;4948134;29;9074;-87
2022/04/05 02:45:22;;;;;;;;;;;;;;;24.56;33.14;93910.97;4946721;29;9375;-87
2022/04/05 02:47:57;;;;;;;;;;;;;;;24.60;33.33;93919.66;4942074;28;7425;-87
2022/04/05 02:50:33;;;;;;;;;;;;;;;24.58;33.52;93924.19;4951625;28;9372;-87
2022/04/05 02:53:05;;;;;;;;;;;;;;;24.58;33.34;93918.69;4958836;28;9041;-87
2022/04/05 02:55:33;;;;;;;;;;;;;;;24.54;33.54;93916.22;4951486;29;8797;-87
2022/04/05 02:58:03;;;;;;;;;;;;;;;24.53;33.77;93914.72;4962143;28;8054;-87
2022/04/05 03:00:37;;;;;;;;;;;;;;;24.57;33.20;93917.97;4942516;29;9042;-87
2022/04/05 03:03:04;;;;;;;;;;;;;;;24.56;33.13;93916.47;4953932;28;9023;-87
2022/04/05 03:05:37;;;;;;;;;;;;;;;24.48;33.42;93903.81;4938834;28;8664;-87
2022/04/05 03:08:05;;;;;;;;;;;;;;;24.54;33.57;93913.47;4953362;28;7350;-87
2022/04/05 03:10:41;;;;;;;;;;;;;;;24.54;32.79;93913.47;4938180;28;7359;-87
2022/04/05 03:13:13;;;;;;;;;;;;;;;24.56;33.54;93912.97;4953220;28;8792;-87
2022/04/05 03:15:40;;;;;;;;;;;;;;;24.51;33.53;93900.75;4947836;28;8739;-87
2022/04/05 03:18:07;;;;;;;;;;;;;;;24.52;33.28;93905.00;4925339;29;8609;-86
2022/04/05 03:20:33;;;;;;;;;;;;;;;24.55;33.15;93908.72;4902189;28;1211711;-87
2022/04/05 03:23:00;;;;;;;;;;;;;;;24.49;33.47;93894.31;4937309;28;9002;-87
2022/04/05 03:25:29;;;;;;;;;;;;;;;24.48;33.62;93885.31;4931393;28;9034;-88
2022/04/05 03:27:59;;;;;;;;;;;;;;;24.54;33.57;93899.72;4949188;28;9016;-87
2022/04/05 03:30:25;;;;;;;;;;;;;;;24.48;33.12;93890.06;4934623;28;8882;-87
2022/04/05 03:32:51;;;;;;;;;;;;;;;24.45;33.36;93886.31;4953389;28;8780;-87
2022/04/05 03:35:19;;;;;;;;;;;;;;;24.44;33.54;93890.34;4954303;28;8741;-87
2022/04/05 03:37:55;;;;;;;;;;;;;;;24.52;33.72;93899.50;4936883;28;6984;-87
2022/04/05 03:40:21;;;;;;;;;;;;;;;24.52;33.62;93907.75;4949285;28;8782;-87
2022/04/05 03:42:47;;;;;;;;;;;;;;;24.52;33.85;93905.00;4937629;28;7267;-87
2022/04/05 03:45:13;;;;;;;;;;;;;;;24.47;33.36;93897.56;4935795;28;8730;-87
2022/04/05 03:47:38;;;;;;;;;;;;;;;24.46;33.35;93890.56;4946490;28;7464;-87
2022/04/05 03:50:05;;;;;;;;;;;;;;;24.49;33.26;93899.81;4942233;28;8745;-87
2022/04/05 03:52:35;;;;;;;;;;;;;;;24.42;33.76;93892.88;4947459;28;9052;-87
2022/04/05 03:55:00;;;;;;;;;;;;;;;24.50;33.37;93907.53;4964566;28;8744;-87
2022/04/05 03:57:29;;;;;;;;;;;;;;;24.51;33.56;93903.50;4958061;28;8967;-88
2022/04/05 03:59:57;;;;;;;;;;;;;;;24.49;33.22;93905.31;4936756;28;7052;-88
2022/04/05 04:02:22;;;;;;;;;;;;;;;24.46;33.64;93907.06;4948090;28;7061;-88
2022/04/05 04:04:48;;;;;;;;;;;;;;;24.45;33.11;93899.31;4940060;28;7037;-87
2022/04/05 04:07:14;;;;;;;;;;;;;;;24.48;33.62;93910.06;4953917;28;8782;-88
2022/04/05 04:09:40;;;;;;;;;;;;;;;24.50;33.24;93909.53;4952041;28;9520;-88
2022/04/05 04:12:11;;;;;;;;;;;;;;;24.50;33.22;93909.53;4953402;28;9028;-87
2022/04/05 04:14:39;;;;;;;;;;;;;;;24.50;33.65;93909.53;4953752;28;9078;-87
2022/04/05 04:17:05;;;;;;;;;;;;;;;24.47;33.68;93914.03;4953634;28;9006;-87
2022/04/05 04:19:31;;;;;;;;;;;;;;;24.42;33.13;93900.38;4955170;28;8734;-88
2022/04/05 04:21:57;;;;;;;;;;;;;;;24.44;33.46;93898.59;4948028;28;7262;-87
2022/04/05 04:24:22;;;;;;;;;;;;;;;24.46;33.21;93901.56;4926554;28;9012;-88
2022/04/05 04:26:48;;;;;;;;;;;;;;;24.48;32.84;93904.56;4939275;28;9271;-88
2022/04/05 04:29:18;;;;;;;;;;;;;;;24.48;33.35;93901.81;4936578;28;8735;-87
2022/04/05 04:31:44;;;;;;;;;;;;;;;24.49;35.00;93900.53;4951069;28;8829;-88
2022/04/05 04:34:10;;;;;;;;;;;;;;;24.51;33.34;93911.03;4950789;28;8075;-87
2022/04/05 04:36:36;;;;;;;;;;;;;;;24.49;33.39;93908.78;4936014;28;7266;-86
2022/04/05 04:39:05;;;;;;;;;;;;;;;24.48;36.96;93915.53;4932256;29;8091;-86
2022/04/05 04:41:35;;;;;;;;;;;;;;;24.51;35.72;93908.28;4935981;28;7280;-87
2022/04/05 04:44:01;;;;;;;;;;;;;;;24.49;34.46;93900.53;4945777;29;8780;-86
2022/04/05 04:46:37;;;;;;;;;;;;;;;24.46;34.06;93901.56;4934058;28;7446;-87
2022/04/05 04:49:03;;;;;;;;;;;;;;;24.45;34.41;93904.81;4935507;29;9048;-86
2022/04/05 04:51:31;;;;;;;;;;;;;;;24.44;34.30;93901.34;4950417;28;8730;-86
2022/04/05 04:54:09;;;;;;;;;;;;;;;24.43;34.27;93905.34;4937464;28;8760;-87
2022/04/05 04:56:40;;;;;;;;;;;;;;;24.45;33.82;93904.81;4934249;29;8999;-85
2022/04/05 04:59:06;;;;;;;;;;;;;;;24.43;33.50;93905.34;4938800;28;8734;-86
2022/04/05 05:01:36;;;;;;;;;;;;;;;24.48;33.26;93907.31;4937365;29;9043;-86
2022/04/05 05:04:02;;;;;;;;;;;;;;;24.46;33.33;93904.31;4936044;29;7362;-86
2022/04/05 05:06:33;;;;;;;;;;;;;;;24.48;32.63;93904.56;4941071;29;8733;-85
2022/04/05 05:08:59;;;;;;;;;;;;;;;24.42;32.14;93903.88;4939425;28;9006;-85
2022/04/05 05:11:26;;;;;;;;;;;;;;;24.45;32.57;93913.81;4941229;29;9012;-85
2022/04/05 05:13:52;;;;;;;;;;;;;;;24.42;32.60;93903.13;4935230;29;8813;-86
2022/04/05 05:16:25;;;;;;;;;;;;;;;24.49;32.75;93908.78;4939130;28;7216;-86
2022/04/05 05:18:52;;;;;;;;;;;;;;;24.46;32.86;93917.31;4934589;29;9242;-86
2022/04/05 05:21:25;;;;;;;;;;;;;;;24.46;33.34;93922.81;4934598;29;9073;-84
2022/04/05 05:23:53;;;;;;;;;;;;;;;24.45;32.94;93922.06;4928204;29;9236;-85
2022/04/05 05:26:19;;;;;;;;;;;;;;;24.46;32.94;93917.31;4932618;28;8584;-86
2022/04/05 05:28:45;;;;;;;;;;;;;;;24.41;36.10;93909.84;4958240;28;9085;-85
2022/04/05 05:31:13;;;;;;;;;;;;;;;24.48;34.60;93920.28;4943275;29;8818;-86
2022/04/05 05:33:39;;;;;;;;;;;;;;;24.47;33.97;93914.03;4934979;29;8935;-86
2022/04/05 05:36:05;;;;;;;;;;;;;;;24.47;33.55;93911.28;4935099;29;9277;-86
2022/04/05 05:38:32;;;;;;;;;;;;;;;24.50;33.64;93918.53;4956324;28;9002;-86
2022/04/05 05:41:01;;;;;;;;;;;;;;;24.45;33.98;93915.81;4943591;29;9225;-86
2022/04/05 05:43:30;;;;;;;;;;;;;;;24.47;33.56;93913.28;4931806;29;9047;-85
2022/04/05 05:46:07;;;;;;;;;;;;;;;24.43;33.12;93916.34;4935644;29;7256;-86
2022/04/05 05:48:34;;;;;;;;;;;;;;;24.39;33.64;93907.63;4931615;28;8887;-86
2022/04/05 05:51:02;;;;;;;;;;;;;;;24.46;32.60;93922.81;4941203;28;9128;-86
2022/04/05 05:53:28;;;;;;;;;;;;;;;24.43;32.93;93923.84;4936006;28;9591;-86
2022/04/05 05:56:06;;;;;;;;;;;;;;;24.42;32.86;93919.59;4936690;28;9098;-86
2022/04/05 05:58:32;;;;;;;;;;;;;;;24.43;33.23;93924.59;4954209;28;8650;-86
2022/04/05 06:01:00;;;;;;;;;;;;;;;24.36;32.80;93919.66;4939352;28;9011;-86
2022/04/05 06:03:26;;;;;;;;;;;;;;;24.42;33.33;93928.59;4966362;28;9111;-86
2022/04/05 06:05:52;;;;;;;;;;;;;;;24.40;33.08;93919.38;4953263;28;8713;-86
2022/04/05 06:08:21;;;;;;;;;;;;;;;24.45;33.04;93937.81;4946118;28;9399;-86
2022/04/05 06:10:48;;;;;;;;;;;;;;;24.47;32.72;93941.53;4934613;28;8737;-86
2022/04/05 06:13:16;;;;;;;;;;;;;;;24.44;33.37;93939.06;4949665;28;8995;-86
2022/04/05 06:15:43;;;;;;;;;;;;;;;24.43;33.37;93935.56;4937804;28;7252;-85
2022/04/05 06:18:10;;;;;;;;;;;;;;;24.40;33.46;93936.59;4939940;28;7080;-86
2022/04/05 06:20:38;;;;;;;;;;;;;;;24.38;33.36;93941.84;4936502;28;8796;-86
2022/04/05 06:23:05;;;;;;;;;;;;;;;24.39;33.93;93945.38;4954268;28;8721;-86
2022/04/05 06:25:34;;;;;;;;;;;;;;;24.39;33.73;93951.63;4944005;28;9099;-86
2022/04/05 06:28:06;;;;;;;;;;;;;;;24.39;33.87;93957.09;4941627;28;9154;-86
2022/04/05 06:30:34;;;;;;;;;;;;;;;24.35;34.21;93945.66;4943105;28;8796;-86
2022/04/05 06:33:10;;;;;;;;;;;;;;;24.39;34.09;93951.63;4937456;28;8740;-86
2022/04/05 06:35:43;;;;;;;;;;;;;;;24.39;33.99;93954.34;4940142;28;9364;-86
2022/04/05 06:38:12;;;;;;;;;;;;;;;24.35;34.19;93953.16;4952884;28;6937;-86
2022/04/05 06:40:42;;;;;;;;;;;;;;;24.38;33.61;93961.09;4954305;28;7044;-86
2022/04/05 06:43:11;;;;;;;;;;;;;;;24.38;33.98;93955.59;4943415;28;9077;-86
2022/04/05 06:45:37;;;;;;;;;;;;;;;24.40;34.21;93958.59;4955262;28;7321;-86
2022/04/05 06:48:09;;;;;;;;;;;;;;;24.38;34.21;93963.84;4944458;28;6942;-86
2022/04/05 06:50:41;;;;;;;;;;;;;;;24.38;34.45;93955.59;4953054;28;8762;-86
2022/04/05 06:53:09;;;;;;;;;;;;;;;24.35;34.11;93945.66;4940096;28;8201;-85
2022/04/05 06:55:41;;;;;;;;;;;;;;;24.39;33.95;93957.09;4944007;28;8740;-85
2022/04/05 06:58:08;;;;;;;;;;;;;;;24.29;34.12;93942.22;4954431;28;7339;-86
2022/04/05 07:00:35;;;;;;;;;;;;;;;24.39;34.27;93957.09;4950569;28;8695;-85
2022/04/05 07:03:08;;;;;;;;;;;;;;;24.36;33.59;93944.38;4944501;28;8719;-85
2022/04/05 07:05:36;;;;;;;;;;;;;;;24.35;34.19;93948.41;4939697;28;6886;-85
2022/04/05 07:08:05;;;;;;;;;;;;;;;24.37;34.45;93945.88;4963358;28;9226;-85
2022/04/05 07:10:31;;;;;;;;;;;;;;;24.38;34.28;93941.84;4953041;28;7101;-86
2022/04/05 07:12:57;;;;;;;;;;;;;;;24.35;34.23;93929.16;4953634;28;8822;-86
2022/04/05 07:15:29;;;;;;;;;;;;;;;24.40;34.44;93941.38;4948569;28;7015;-86
2022/04/05 07:17:57;;;;;;;;;;;;;;;24.39;34.37;93942.63;4930566;28;7128;-86
2022/04/05 07:20:23;;;;;;;;;;;;;;;24.37;34.54;93937.63;4938341;28;8718;-86
2022/04/05 07:22:51;;;;;;;;;;;;;;;24.31;34.16;93922.47;4950878;28;8598;-86
2022/04/05 07:25:21;;;;;;;;;;;;;;;24.38;34.42;93944.59;4930368;28;9802;-86
2022/04/05 07:27:51;;;;;;;;;;;;;;;24.38;34.59;93930.16;4948699;28;9035;-85
2022/04/05 07:30:25;;;;;;;;;;;;;;;24.41;34.46;93934.59;4951646;28;8762;-86
2022/04/05 07:32:55;;;;;;;;;;;;;;;24.44;34.04;93931.59;4952662;28;9012;-86
2022/04/05 07:35:24;;;;;;;;;;;;;;;24.44;34.63;93933.59;4938827;28;9065;-86
2022/04/05 07:37:54;;;;;;;;;;;;;;;24.43;34.58;93924.59;4953020;28;9040;-86
2022/04/05 07:40:20;;;;;;;;;;;;;;;24.39;34.38;93921.38;4948322;28;9052;-86
2022/04/05 07:42:47;;;;;;;;;;;;;;;24.36;34.52;93914.16;4948240;28;7712;-86
2022/04/05 07:45:15;;;;;;;;;;;;;;;24.41;34.31;93913.34;4939851;28;6932;-86
2022/04/05 07:47:42;;;;;;;;;;;;;;;24.43;34.64;93918.34;4936561;28;8722;-86
2022/04/05 07:50:10;;;;;;;;;;;;;;;24.40;34.54;93913.88;4942363;28;8840;-87
2022/04/05 07:52:37;;;;;;;;;;;;;;;24.42;33.70;93917.59;4935954;28;9002;-86
2022/04/05 07:55:04;;;;;;;;;;;;;;;24.35;33.72;93915.41;4947170;28;8765;-86
2022/04/05 07:57:30;;;;;;;;;;;;;;;24.37;33.20;93921.16;4945850;28;9003;-85
2022/04/05 07:59:58;;;;;;;;;;;;;;;24.38;33.47;93924.66;4938375;28;8893;-86
2022/04/05 08:02:24;;;;;;;;;;;;;;;24.39;33.27;93928.88;4937644;28;9224;-86
2022/04/05 08:04:50;;;;;;;;;;;;;;;24.37;33.55;93921.16;4935530;28;7032;-86
2022/04/05 08:07:16;;;;;;;;;;;;;;;24.38;33.72;93921.91;4931970;28;9193;-86
2022/04/05 08:09:44;;;;;;;;;;;;;;;24.40;33.61;93924.88;4948312;28;8716;-86
2022/04/05 08:12:10;;;;;;;;;;;;;;;24.42;33.55;93925.84;4935048;28;9495;-86
2022/04/05 08:14:43;;;;;;;;;;;;;;;24.39;33.81;93920.63;4952347;28;9059;-86
2022/04/05 08:17:15;;;;;;;;;;;;;;;24.35;34.02;93909.16;4939612;28;9018;-86
2022/04/05 08:19:41;;;;;;;;;;;;;;;24.38;33.95;93927.41;4936876;28;8797;-86
2022/04/05 08:22:09;;;;;;;;;;;;;;;24.43;33.93;93924.59;4947846;28;9055;-86
2022/04/05 08:24:35;;;;;;;;;;;;;;;24.39;33.85;93918.63;4935214;28;7331;-86
2022/04/05 08:27:03;;;;;;;;;;;;;;;24.42;34.20;93919.59;4936478;28;9027;-86
2022/04/05 08:29:41;;;;;;;;;;;;;;;24.37;34.01;93912.91;4949681;28;9311;-86
2022/04/05 08:32:09;;;;;;;;;;;;;;;24.40;34.39;93920.09;4950084;28;8867;-86
2022/04/05 08:34:41;;;;;;;;;;;;;;;24.43;33.99;93919.09;4951045;28;9324;-86
2022/04/05 08:37:08;;;;;;;;;;;;;;;24.35;33.75;93907.19;4936220;28;9017;-86
2022/04/05 08:39:35;;;;;;;;;;;;;;;24.40;33.97;93905.63;4937760;29;8794;-86
2022/04/05 08:42:05;;;;;;;;;;;;;;;24.41;34.57;93915.34;4948216;29;7123;-86
2022/04/05 08:44:33;;;;;;;;;;;;;;;24.38;34.48;93911.63;4945437;28;9057;-86
2022/04/05 08:47:02;;;;;;;;;;;;;;;24.39;34.10;93904.88;4937708;29;7055;-85
2022/04/05 08:49:30;;;;;;;;;;;;;;;24.43;34.02;93908.09;4935624;29;9000;-86
2022/04/05 08:51:58;;;;;;;;;;;;;;;24.44;33.75;93908.84;4955733;28;8767;-85
2022/04/05 08:54:24;;;;;;;;;;;;;;;24.36;34.49;93897.66;4934494;29;9014;-86
2022/04/05 08:56:58;;;;;;;;;;;;;;;24.46;34.01;93906.31;4935323;29;9000;-85
2022/04/05 08:59:32;;;;;;;;;;;;;;;24.43;34.40;93908.09;4952761;28;8765;-85
2022/04/05 09:02:00;;;;;;;;;;;;;;;24.39;34.02;93912.38;4952436;28;9124;-85
2022/04/05 09:04:37;;;;;;;;;;;;;;;24.42;34.26;93917.59;4935353;29;7357;-85
2022/04/05 09:07:24;;;;;;;;;;;;;;;24.46;34.04;93917.31;4948165;28;8724;-85
2022/04/05 09:10:13;;;;;;;;;;;;;;;24.46;34.42;93917.31;4947287;28;9355;-85
2022/04/05 09:12:49;;;;;;;;;;;;;;;24.45;34.70;93916.56;4939756;29;9001;-85
2022/04/05 09:15:18;;;;;;;;;;;;;;;24.45;34.42;93919.31;4954224;28;8579;-86
2022/04/05 09:17:51;;;;;;;;;;;;;;;24.42;34.04;93909.38;4946921;28;8792;-85
2022/04/05 09:20:20;;;;;;;;;;;;;;;24.43;34.45;93907.34;4949768;28;8873;-85
2022/04/05 09:22:49;;;;;;;;;;;;;;;24.42;34.49;93909.38;4937983;29;8765;-85
2022/04/05 09:25:16;;;;;;;;;;;;;;;24.38;34.55;93908.16;4937231;28;9278;-86
2022/04/05 09:27:51;;;;;;;;;;;;;;;24.44;34.26;93909.59;4954760;28;8733;-86
2022/04/05 09:30:33;;;;;;;;;;;;;;;24.45;34.44;93924.06;4961136;28;8958;-85
2022/04/05 09:33:14;;;;;;;;;;;;;;;24.44;34.85;93920.59;4951983;28;9011;-85
2022/04/05 09:35:43;;;;;;;;;;;;;;;24.43;34.66;93916.34;4955228;28;9753;-85
2022/04/05 09:38:16;;;;;;;;;;;;;;;24.42;34.40;93914.88;4956070;28;8767;-85
2022/04/05 09:40:44;;;;;;;;;;;;;;;24.45;34.98;93916.56;4952513;28;7291;-85
2022/04/05 09:43:23;;;;;;;;;;;;;;;24.47;34.36;93921.53;4962028;28;7036;-85
2022/04/05 09:46:05;;;;;;;;;;;;;;;24.46;34.54;93909.06;4961072;28;9378;-85
2022/04/05 09:48:35;;;;;;;;;;;;;;;24.41;34.11;93907.88;4942737;28;8732;-85
2022/04/05 09:51:10;;;;;;;;;;;;;;;24.48;34.49;93914.78;4950312;28;8031;-85
2022/04/05 09:53:42;;;;;;;;;;;;;;;24.45;34.90;93916.56;4952718;28;8804;-86
2022/04/05 09:56:16;;;;;;;;;;;;;;;24.46;34.78;93915.31;4935572;28;7821;-85
2022/04/05 09:59:07;;;;;;;;;;;;;;;24.46;34.70;93911.81;4939524;28;8983;-85
2022/04/05 10:01:35;;;;;;;;;;;;;;;24.44;34.64;93914.34;4954724;28;6864;-86
2022/04/05 10:04:08;;;;;;;;;;;;;;;24.43;34.87;93915.59;4955320;28;8748;-86
2022/04/05 10:06:42;;;;;;;;;;;;;;;24.47;34.55;93918.78;4949701;28;10003;-86
2022/04/05 10:09:11;;;;;;;;;;;;;;;24.40;34.67;93909.09;4943658;28;9185;-86
2022/04/05 10:11:42;;;;;;;;;;;;;;;24.46;34.57;93917.31;4940519;28;8701;-86
2022/04/05 10:14:11;;;;;;;;;;;;;;;24.45;34.41;93913.06;4954998;28;9023;-86
2022/04/05 10:16:38;;;;;;;;;;;;;;;24.39;34.53;93895.88;4935379;28;7157;-86
2022/04/05 10:19:11;;;;;;;;;;;;;;;24.45;34.55;93913.81;4933529;28;9107;-86
2022/04/05 10:21:43;;;;;;;;;;;;;;;24.41;34.15;93901.63;4955954;28;7794;-86
2022/04/05 10:24:10;;;;;;;;;;;;;;;24.40;33.55;93900.88;4936903;28;9315;-86
2022/04/05 10:26:39;;;;;;;;;;;;;;;24.46;33.92;93901.56;4937145;28;9127;-85
2022/04/05 10:29:10;;;;;;;;;;;;;;;24.45;34.06;93902.81;4942539;28;9194;-85
2022/04/05 10:31:49;;;;;;;;;;;;;;;24.44;33.93;93909.59;4934463;28;9217;-86
2022/04/05 10:34:27;;;;;;;;;;;;;;;24.44;34.11;93904.09;4936340;28;9080;-86
2022/04/05 10:37:17;;;;;;;;;;;;;;;24.46;34.47;93898.81;4955073;28;8755;-86
2022/04/05 10:39:57;;;;;;;;;;;;;;;24.47;34.68;93896.78;4938482;28;9122;-86
2022/04/05 10:42:35;;;;;;;;;;;;;;;24.47;34.60;93900.28;4955990;28;8741;-86
2022/04/05 10:45:11;;;;;;;;;;;;;;;24.48;34.52;93895.56;4951126;28;9121;-85
2022/04/05 10:47:58;;;;;;;;;;;;;;;24.48;34.67;93890.06;4935926;28;9526;-85
2022/04/05 10:50:26;;;;;;;;;;;;;;;24.46;34.81;93885.09;4934758;28;9490;-86
2022/04/05 10:53:17;;;;;;;;;;;;;;;24.50;34.77;93890.28;4949381;28;9124;-86
2022/04/05 10:56:06;;;;;;;;;;;;;;;24.53;34.46;93881.00;4950182;28;9476;-86
2022/04/05 10:58:36;;;;;;;;;;;;;;;24.54;34.85;93874.25;4936082;28;9062;-86
2022/04/05 11:01:18;;;;;;;;;;;;;;;24.53;34.62;93873.50;4935644;28;7068;-87
2022/04/05 11:04:09;;;;;;;;;;;;;;;24.56;34.90;93875.22;4941770;28;8786;-86
2022/04/05 11:07:02;;;;;;;;;;;;;;;24.55;34.84;93870.25;4929210;28;9056;-86
2022/04/05 11:09:30;;;;;;;;;;;;;;;24.58;34.92;93869.94;4949497;28;6960;-85
2022/04/05 11:12:31;;;;;;;;;;;;;;;24.56;34.74;93861.47;4935485;28;7589;-85
2022/04/05 11:15:05;;;;;;;;;;;;;;;24.58;34.87;93861.69;4868908;29;9351;-86
2022/04/05 11:17:32;;;;;;;;;;;;;;;24.59;34.64;93860.44;4896477;29;8925;-86
2022/04/05 11:20:00;;;;;;;;;;;;;;;24.59;34.41;93854.94;4897074;29;7244;-86
2022/04/05 11:22:33;;;;;;;;;;;;;;;24.56;34.63;93853.22;4884711;29;7047;-86
2022/04/05 11:25:09;;;;;;;;;;;;;;;24.59;34.64;93854.94;4888738;29;8227;-86
2022/04/05 11:27:48;;;;;;;;;;;;;;;24.59;34.47;93857.69;4889880;29;8736;-86
2022/04/05 11:30:37;;;;;;;;;;;;;;;24.60;34.47;93856.44;4878551;29;8874;-86
2022/04/05 11:33:18;;;;;;;;;;;;;;;24.60;34.72;93852.91;4895485;29;8760;-86
2022/04/05 11:35:59;;;;;;;;;;;;;;;24.60;35.18;93848.19;4890138;29;8668;-86
2022/04/05 11:38:27;;;;;;;;;;;;;;;24.60;34.84;93859.19;4872845;29;7209;-86
2022/04/05 11:41:03;;;;;;;;;;;;;;;24.61;34.79;93854.44;4896503;29;9175;-86
2022/04/05 11:43:38;;;;;;;;;;;;;;;24.60;35.17;93853.69;4898119;29;7004;-86
2022/04/05 11:47:00;;;;;;;;;;;;;;;24.61;35.24;93846.94;4868301;29;8675;-86
2022/04/05 11:49:42;;;;;;;;;;;;;;;24.59;34.95;93849.44;4870402;29;7235;-86
2022/04/05 11:52:10;;;;;;;;;;;;;;;24.61;34.84;93841.44;4953662;28;7324;-86
2022/04/05 11:57:24;;;;;;;;;;;;;;;24.57;34.57;93843.72;4954782;28;7257;-86
2022/04/05 12:00:09;;;;;;;;;;;;;;;24.58;34.55;93842.44;4938393;28;7918;-86
2022/04/05 12:02:36;;;;;;;;;;;;;;;24.58;35.08;93847.19;4936108;28;7032;-86
2022/04/05 12:05:07;;;;;;;;;;;;;;;24.53;34.59;93831.53;4954289;28;9011;-86
2022/04/05 12:07:47;;;;;;;;;;;;;;;24.57;34.45;93840.97;4951400;28;9113;-86
2022/04/05 12:10:14;;;;;;;;;;;;;;;24.59;34.31;93838.44;4941691;28;8756;-86
2022/04/05 12:12:48;;;;;;;;;;;;;;;24.58;34.43;93836.94;4939009;28;9003;-86
2022/04/05 12:15:24;;;;;;;;;;;;;;;24.59;35.09;93837.69;4953585;28;9091;-86
2022/04/05 12:17:51;;;;;;;;;;;;;;;24.59;34.99;93837.69;4963226;28;8773;-86
2022/04/05 12:20:20;;;;;;;;;;;;;;;24.62;34.51;93831.91;4938886;28;9178;-86
2022/04/05 12:22:46;;;;;;;;;;;;;;;24.57;34.46;93816.22;4939109;28;9033;-86
2022/04/05 12:25:12;;;;;;;;;;;;;;;24.62;34.75;93825.69;4932559;28;7253;-86
2022/04/05 12:27:38;;;;;;;;;;;;;;;24.63;34.80;93832.66;4952827;28;8744;-86
2022/04/05 12:30:04;;;;;;;;;;;;;;;24.60;34.46;93822.69;4936858;28;9276;-86
2022/04/05 12:32:38;;;;;;;;;;;;;;;24.62;34.54;93825.69;4932182;28;6876;-86
2022/04/05 12:35:14;;;;;;;;;;;;;;;24.63;34.92;93824.41;4931166;28;7036;-86
2022/04/05 12:37:49;;;;;;;;;;;;;;;24.63;34.68;93827.91;4951928;28;7250;-86
2022/04/05 12:40:23;;;;;;;;;;;;;;;24.60;34.60;93815.19;4936086;28;8691;-85
2022/04/05 12:42:51;;;;;;;;;;;;;;;24.65;34.54;93824.63;4937478;29;8619;-86
2022/04/05 12:45:25;;;;;;;;;;;;;;;24.62;34.40;93818.16;4931626;29;8721;-86
2022/04/05 12:47:52;;;;;;;;;;;;;;;24.65;34.42;93821.88;4951478;28;8603;-86
2022/04/05 12:50:18;;;;;;;;;;;;;;;24.59;34.37;93813.72;4934680;29;8737;-86
2022/04/05 12:52:45;;;;;;;;;;;;;;;24.62;34.39;93817.44;4936188;29;9066;-86
2022/04/05 12:55:17;;;;;;;;;;;;;;;24.65;34.72;93825.38;4946659;28;8751;-86
2022/04/05 12:57:52;;;;;;;;;;;;;;;24.62;34.29;93826.41;4936177;28;9025;-86
2022/04/05 13:00:20;;;;;;;;;;;;;;;24.63;34.62;93813.41;4950479;28;9096;-85
2022/04/05 13:03:11;;;;;;;;;;;;;;;24.62;34.57;93806.44;4956585;28;8662;-86
2022/04/05 13:08:47;;;;;;;;;;;;;;;24.63;34.32;93805.91;4957737;28;8776;-86
2022/04/05 13:11:32;;;;;;;;;;;;;;;24.57;33.93;93788.75;4937778;28;8924;-86
2022/04/05 13:14:10;;;;;;;;;;;;;;;24.61;34.39;93802.94;4941657;28;8989;-86
2022/04/05 13:16:42;;;;;;;;;;;;;;;24.58;34.43;93792.22;4952193;28;9448;-86
2022/04/05 13:19:18;;;;;;;;;;;;;;;24.59;34.57;93794.47;4939209;28;8644;-86
2022/04/05 13:21:50;;;;;;;;;;;;;;;24.61;34.26;93802.94;4941525;28;7418;-86